Latest Weather Observations for St Helens

IDT60801

Issued at 11:05 pm EST Tuesday 22 July 2014 (issued every 30 minutes, with the page automatically refreshed every 10 minutes)

About weather observations | Map of weather stations | Latest weather observations for TAS | Other Formats
Station Details ID: 092120 Name: ST HELENS AERODROME Lat: -41.34 Lon: 148.28 Height: 48.0 m
Data from the previous 72 hours. | See also: Recent months at St Helens
Date/Time
EST
Temp
°C
App
Temp
°C
Dew
Point
Rel
Hum
%
Delta-T
°C
Wind Press
QNH
hPa
Press
MSL
hPa
Rain
since 9 am
mm
Dir
 
Spd
km/h
Gust
km/h
Spd
kts
Gust
kts
22/11:00pm 4.4 0.5 3.5 94 0.4 NW 13 17 7 9 1024.7 - 0.0
22/10:30pm 5.1 1.4 4.4 95 0.3 NW 13 15 7 8 1024.7 - 0.0
22/10:00pm 5.3 1.6 4.4 94 0.4 NW 13 17 7 9 1024.8 - 0.0
22/09:30pm 5.5 2.2 4.6 94 0.4 NNW 11 15 6 8 1024.9 - 0.0
22/09:00pm 5.6 2.0 4.9 95 0.3 NNW 13 17 7 9 1025.0 1025.1 0.0
22/08:30pm 6.0 3.2 5.1 94 0.4 NNW 9 13 5 7 1024.9 - 0.0
22/08:00pm 6.1 3.4 5.4 95 0.3 NNW 9 11 5 6 1024.9 - 0.0
22/07:30pm 6.3 3.6 5.6 95 0.3 NNW 9 13 5 7 1024.9 - 0.0
22/07:00pm 6.2 3.9 5.5 95 0.3 NNW 7 9 4 5 1024.8 - 0.0
22/06:30pm 6.9 4.8 5.8 93 0.5 NNW 6 7 3 4 1024.7 - 0.0
22/06:00pm 8.0 6.1 6.5 90 0.7 NW 6 7 3 4 1024.4 1024.5 0.0
22/05:30pm 9.6 8.3 6.1 79 1.6 E 2 6 1 3 1024.3 - 0.0
22/05:00pm 10.0 8.0 6.2 77 1.8 ESE 6 7 3 4 1024.2 - 0.0
22/04:30pm 10.3 8.3 6.1 75 2.0 ESE 6 7 3 4 1024.1 - 0.0
22/04:00pm 11.2 8.9 5.9 70 2.5 E 7 9 4 5 1024.0 - 0.0
22/03:30pm 10.9 9.2 6.1 72 2.2 ESE 4 9 2 5 1024.0 - 0.0
22/03:00pm 12.3 10.6 5.9 65 3.0 E 4 9 2 5 1023.9 1024.0 0.0
22/02:30pm 12.6 9.9 5.8 63 3.2 E 9 15 5 8 1024.0 - 0.0
22/02:00pm 12.4 9.3 5.6 63 3.2 E 11 17 6 9 1024.0 - 0.0
22/01:30pm 11.9 8.3 4.9 62 3.2 E 13 17 7 9 1024.1 - 0.0
22/01:00pm 13.2 11.3 4.9 57 3.8 NNE 4 13 2 7 1024.4 - 0.0
22/12:30pm 13.3 11.3 4.5 55 4.0 NW 4 7 2 4 1024.7 - 0.0
22/12:00pm 12.8 10.1 3.7 54 4.1 NNW 7 9 4 5 1025.2 1025.3 0.0
22/11:30am 10.8 8.5 4.7 66 2.8 NW 6 9 3 5 1025.8 - 0.0
22/11:00am 9.7 6.9 5.3 74 2.0 NNW 9 11 5 6 1026.1 - 0.0
22/10:30am 8.9 6.7 5.3 78 1.6 NNW 6 7 3 4 1026.3 - 0.0
22/10:00am 6.9 4.0 4.4 84 1.1 WNW 9 13 5 7 1026.6 - 0.0
22/09:30am 5.0 1.1 3.3 89 0.7 NNW 13 17 7 9 1026.5 - 0.0
22/09:00am 4.8 1.3 3.3 90 0.6 NW 11 17 6 9 1026.4 1026.5 0.2
22/08:30am 4.4 0.5 3.2 92 0.5 NNW 13 17 7 9 1026.2 - 0.2
22/08:00am 3.9 0.3 2.9 93 0.4 NW 11 15 6 8 1026.1 - 0.2
22/07:30am 3.5 -0.6 2.5 93 0.4 NW 13 17 7 9 1025.8 - 0.2
22/07:00am 3.2 -0.1 2.2 93 0.4 WNW 9 11 5 6 1025.5 - 0.2
22/06:30am 3.5 -0.2 2.6 94 0.4 NW 11 15 6 8 1025.6 - 0.2
22/06:00am 3.0 -1.5 2.1 94 0.4 NW 15 19 8 10 1025.3 1025.4 0.2
22/05:30am 2.7 -0.7 2.0 95 0.3 NW 9 15 5 8 1025.1 - 0.2
22/05:00am 2.5 -2.0 1.9 96 0.2 NNW 15 19 8 10 1025.2 - 0.2
22/04:30am 2.5 -2.1 1.8 95 0.3 NW 15 20 8 11 1025.0 - 0.2
22/04:00am 2.8 -1.7 2.1 95 0.3 NNW 15 17 8 9 1025.1 - 0.2
22/03:30am 2.8 -1.7 2.1 95 0.3 NW 15 20 8 11 1025.2 - 0.2
22/03:00am 3.1 -1.4 2.2 94 0.4 NNW 15 17 8 9 1025.3 1025.4 0.2
22/02:30am 3.1 -1.0 2.4 95 0.3 NW 13 17 7 9 1025.5 - 0.2
22/02:00am 3.2 -0.5 2.5 95 0.3 NW 11 15 6 8 1025.5 - 0.2
22/01:30am 3.5 -0.5 2.8 95 0.3 NW 13 15 7 8 1025.6 - 0.2
22/01:00am 3.8 0.2 3.1 95 0.3 NNW 11 15 6 8 1025.5 - 0.2
22/12:30am 3.7 -0.3 2.8 94 0.4 NW 13 15 7 8 1025.7 - 0.2
22/12:00am 3.8 0.2 3.1 95 0.3 NW 11 13 6 7 1025.7 1025.8 0.0
 
Date/Time
EST
Temp
°C
App
Temp
°C
Dew
Point
Rel
Hum
%
Delta-T
°C
Wind Press
QNH
hPa
Press
MSL
hPa
Rain
since 9 am
mm
Dir
 
Spd
km/h
Gust
km/h
Spd
kts
Gust
kts
21/11:30pm 4.2 0.7 3.5 95 0.3 NW 11 15 6 8 1025.8 - 0.0
21/11:00pm 4.1 0.6 3.5 96 0.2 NW 11 15 6 8 1025.9 - 0.0
21/10:30pm 4.0 1.2 3.4 96 0.2 WNW 7 11 4 6 1025.9 - 0.0
21/10:00pm 4.3 0.8 3.6 95 0.3 NW 11 15 6 8 1026.0 - 0.0
21/09:30pm 5.0 2.0 4.3 95 0.3 NNW 9 13 5 7 1026.1 - 0.0
21/09:00pm 5.1 1.8 4.5 96 0.3 NNW 11 13 6 7 1026.3 1026.4 0.0
21/08:30pm 5.8 2.9 4.9 94 0.4 NW 9 15 5 8 1026.2 - 0.0
21/08:00pm 6.2 3.1 5.5 95 0.3 NNW 11 15 6 8 1026.1 - 0.0
21/07:30pm 6.1 3.7 5.2 94 0.4 NW 7 11 4 6 1026.1 - 0.0
21/07:00pm 6.1 3.7 5.2 94 0.4 NNW 7 9 4 5 1026.0 - 0.0
21/06:30pm 7.0 4.7 5.9 93 0.5 NNW 7 7 4 4 1025.8 - 0.0
21/06:00pm 8.2 6.6 6.5 89 0.8 NNW 4 6 2 3 1025.5 1025.6 0.0
21/05:30pm 9.2 7.9 6.1 81 1.4 ESE 2 7 1 4 1025.4 - 0.0
21/05:00pm 9.7 8.6 5.3 74 2.0 CALM 0 0 0 0 1025.3 - 0.0
21/04:30pm 10.3 9.3 5.5 72 2.2 CALM 0 0 0 0 1025.1 - 0.0
21/04:00pm 11.7 10.8 6.2 69 2.6 CALM 0 2 0 1 1025.1 - 0.0
21/03:30pm 11.9 10.7 4.6 61 3.3 CALM 0 4 0 2 1025.1 - 0.0
21/03:00pm 12.4 10.0 4.4 58 3.6 ENE 6 9 3 5 1025.1 1025.2 0.0
21/02:30pm 12.7 10.2 4.9 59 3.6 NE 7 11 4 6 1025.0 - 0.0
21/02:00pm 12.6 10.7 4.8 59 3.6 SE 4 7 2 4 1025.1 - 0.0
21/01:30pm 12.7 11.3 3.6 54 4.1 CALM 0 0 0 0 1025.3 - 0.0
21/01:00pm 12.2 10.4 3.7 56 3.8 S 2 7 1 4 1025.6 - 0.0
21/12:30pm 12.4 10.2 3.1 53 4.1 SW 4 7 2 4 1025.9 - 0.0
21/12:00pm 12.3 9.9 4.5 59 3.5 WNW 6 9 3 5 1026.4 1026.5 0.0
21/11:30am 11.8 9.6 5.2 64 3.0 NW 6 9 3 5 1026.8 - 0.0
21/11:00am 10.3 8.6 5.9 74 2.0 NW 4 7 2 4 1027.1 - 0.0
21/10:30am 8.9 7.1 5.5 79 1.5 WNW 4 7 2 4 1027.4 - 0.0
21/10:00am 6.9 4.4 4.9 87 0.9 WNW 7 11 4 6 1027.5 - 0.0
21/09:30am 5.5 2.5 4.0 90 0.6 NNW 9 13 5 7 1027.4 - 0.0
21/09:00am 4.2 0.3 3.2 93 0.4 NNW 13 15 7 8 1027.3 1027.4 0.2
21/08:30am 3.0 -0.7 2.4 96 0.2 NNW 11 15 6 8 1027.2 - 0.2
21/08:00am 2.6 -1.9 2.0 96 0.2 NNW 15 17 8 9 1027.0 - 0.2
21/07:30am 2.5 -2.0 2.1 97 0.2 NNW 15 17 8 9 1026.8 - 0.2
21/07:00am 2.7 -1.8 2.3 97 0.2 NNW 15 17 8 9 1026.8 - 0.2
21/06:30am 2.4 -2.2 1.8 96 0.2 NNW 15 19 8 10 1026.7 - 0.2
21/06:00am 2.9 -0.8 2.5 97 0.2 NNW 11 15 6 8 1026.6 1026.7 0.2
21/05:30am 3.2 -1.2 2.8 97 0.2 NNW 15 19 8 10 1026.5 - 0.2
21/05:00am 2.9 -1.2 2.5 97 0.2 NNW 13 17 7 9 1026.4 - 0.2
21/04:30am 2.4 -1.4 2.0 97 0.2 NW 11 15 6 8 1026.2 - 0.2
21/04:00am 2.9 -1.2 2.5 97 0.2 NW 13 17 7 9 1026.2 - 0.0
21/03:30am 3.0 -1.4 2.6 97 0.2 NW 15 17 8 9 1026.2 - 0.0
21/03:00am 3.3 -1.1 2.9 97 0.2 NW 15 15 8 8 1026.6 1026.7 0.0
21/02:30am 3.7 -0.3 3.1 96 0.2 NNW 13 15 7 8 1026.8 - 0.0
21/02:00am 3.8 -0.5 3.2 96 0.2 NNW 15 17 8 9 1026.9 - 0.0
21/01:30am 4.4 0.6 3.8 96 0.3 NNW 13 17 7 9 1026.7 - 0.0
21/01:00am 4.2 0.8 3.8 97 0.2 NNW 11 13 6 7 1026.9 - 0.0
21/12:30am 4.1 0.3 3.7 97 0.2 NNW 13 15 7 8 1026.9 - 0.0
21/12:00am 3.6 -0.3 3.2 97 0.2 NNW 13 15 7 8 1027.0 1027.1 0.0
 
Date/Time
EST
Temp
°C
App
Temp
°C
Dew
Point
Rel
Hum
%
Delta-T
°C
Wind Press
QNH
hPa
Press
MSL
hPa
Rain
since 9 am
mm
Dir
 
Spd
km/h
Gust
km/h
Spd
kts
Gust
kts
20/11:30pm 3.9 0.0 3.5 97 0.2 NNW 13 17 7 9 1027.1 - 0.0
20/11:00pm 4.0 0.5 3.6 97 0.2 NNW 11 15 6 8 1027.2 - 0.0
20/10:30pm 4.2 0.8 3.8 97 0.2 NNW 11 13 6 7 1027.1 - 0.0
20/10:00pm 4.2 0.7 3.6 96 0.2 NNW 11 13 6 7 1027.1 - 0.0
20/09:30pm 4.5 1.1 3.9 96 0.3 NNW 11 13 6 7 1027.1 - 0.0
20/09:00pm 4.6 1.6 4.0 96 0.2 N 9 13 5 7 1027.0 1027.2 0.0
20/08:30pm 5.2 2.3 4.5 95 0.3 NNW 9 11 5 6 1027.0 - 0.0
20/08:00pm 5.2 1.9 4.5 95 0.3 NNW 11 13 6 7 1027.0 - 0.0
20/07:30pm 5.4 1.8 4.8 96 0.3 NNW 13 15 7 8 1027.0 - 0.0
20/07:00pm 5.6 3.1 4.9 95 0.3 NNW 7 9 4 5 1026.8 - 0.0
20/06:30pm 6.0 3.5 4.8 92 0.5 NNW 7 9 4 5 1026.6 - 0.0
20/06:00pm 7.7 5.5 5.2 84 1.1 NW 6 7 3 4 1026.3 1026.4 0.0
20/05:30pm 8.6 7.6 5.5 81 1.4 CALM 0 0 0 0 1026.0 - 0.0
20/05:00pm 9.8 7.7 5.6 75 1.9 NE 6 6 3 3 1025.9 - 0.0
20/04:30pm 11.5 9.8 5.8 68 2.7 ENE 4 6 2 3 1025.9 - 0.0
20/04:00pm 12.2 9.9 5.6 64 3.1 ENE 7 9 4 5 1025.8 - 0.0
20/03:30pm 12.1 10.3 5.3 63 3.1 E 4 9 2 5 1025.6 - 0.0
20/03:00pm 12.2 9.3 4.7 60 3.4 E 9 13 5 7 1025.6 1025.6 0.0
20/02:30pm 12.6 10.3 4.8 59 3.6 ESE 6 11 3 6 1025.6 - 0.0
20/02:00pm 12.3 9.8 4.0 57 3.7 ESE 6 11 3 6 1025.7 - 0.0
20/01:30pm 12.8 10.2 4.3 56 3.9 E 7 13 4 7 1025.6 - 0.0
20/01:00pm 13.6 11.6 4.2 53 4.3 SE 4 11 2 6 1025.9 - 0.0
20/12:30pm 13.2 10.7 3.8 53 4.3 NE 6 9 3 5 1026.1 - 0.0
20/12:00pm 12.7 11.5 6.5 66 2.9 NE 2 6 1 3 1026.5 1026.6 0.0
20/11:30am 12.0 9.8 6.1 67 2.8 NNW 7 9 4 5 1026.8 - 0.0
20/11:00am 10.3 8.9 5.5 72 2.2 NW 2 7 1 4 1027.1 - 0.0
20/10:30am 8.6 5.8 5.0 78 1.6 NW 9 11 5 6 1027.2 - 0.0
20/10:00am 6.8 3.5 4.3 84 1.1 NW 11 13 6 7 1027.2 - 0.0
20/09:30am 5.1 1.6 3.3 88 0.7 NW 11 15 6 8 1027.0 - 0.0
20/09:00am 3.6 -0.5 2.3 91 0.5 NW 13 17 7 9 1026.8 1026.9 0.2
20/08:30am 2.6 -1.6 1.7 94 0.3 NW 13 17 7 9 1026.6 - 0.2
20/08:00am 2.4 -1.8 1.5 94 0.3 NNW 13 15 7 8 1026.5 - 0.2
20/07:30am 2.1 -2.1 1.4 95 0.3 NNW 13 17 7 9 1026.4 - 0.2
20/07:00am 1.6 -2.7 1.0 96 0.2 NNW 13 15 7 8 1026.2 - 0.2
20/06:30am 1.7 -2.2 1.0 95 0.3 NW 11 15 6 8 1026.0 - 0.0
20/06:00am 1.9 -2.4 1.2 95 0.3 NW 13 15 7 8 1025.6 1025.7 0.0
20/05:30am 1.9 -2.4 1.2 95 0.3 NW 13 17 7 9 1025.6 - 0.0
20/05:00am 2.0 -2.3 1.1 94 0.3 NW 13 17 7 9 1025.6 - 0.0
20/04:30am 2.2 -1.7 1.3 94 0.3 NW 11 15 6 8 1025.4 - 0.0
20/04:00am 2.3 -1.9 1.4 94 0.3 NW 13 15 7 8 1025.4 - 0.0
20/03:30am 2.4 -1.8 1.5 94 0.3 NW 13 15 7 8 1025.4 - 0.0
20/03:00am 2.4 -1.4 1.7 95 0.3 NW 11 15 6 8 1025.5 1025.7 0.0
20/02:30am 2.8 -1.3 2.1 95 0.3 NW 13 17 7 9 1025.8 - 0.0
20/02:00am 2.5 -2.1 1.8 95 0.3 NW 15 19 8 10 1025.9 - 0.0
20/01:30am 2.9 -1.2 2.2 95 0.3 NW 13 17 7 9 1025.9 - 0.0
20/01:00am 3.2 -1.2 2.5 95 0.3 NW 15 17 8 9 1025.9 - 0.0
20/12:30am 3.5 -1.3 2.8 95 0.3 NNW 17 19 9 10 1026.1 - 0.0
20/12:00am 3.5 -0.5 2.9 96 0.2 NNW 13 15 7 8 1026.2 1026.3 0.0
 
Date/Time
EST
Temp
°C
App
Temp
°C
Dew
Point
Rel
Hum
%
Delta-T
°C
Wind Press
QNH
hPa
Press
MSL
hPa
Rain
since 9 am
mm
Dir
 
Spd
km/h
Gust
km/h
Spd
kts
Gust
kts
19/11:30pm 3.3 -0.7 2.6 95 0.3 NW 13 15 7 8 1026.3 - 0.0

Other Formats:

Comma delimited format used in spreadsheet applications
http://www.bom.gov.au/fwo/IDT60801/IDT60801.95981.axf

JavaScript Object Notation format (JSON) in row-major order
http://www.bom.gov.au/fwo/IDT60801/IDT60801.95981.json